Detall de PIREP

Printer-friendly versionPDF version

[2013/04/01 17:08:00]
Flight IATA:CT1004
Pilot Number:026
Company ICAO:CAT
Aircraft Type:DC85/A
PAX:132
Aircraft Registration:PAX
Departing Airport: LOWI
Destination Airport: LIEA
Alternate Airport:LIEO
Online: VATSIM
Route:RTT2J/08 RTT Y703 INN UM726 BZO UL12 FER UQ58 VALEN UM738 TAQ UL865 VALMA UL5 MINKA
Flight Level:F330
No Slew and time accel
No pause
Crash detect
Detect pilot in Cockpit between each 30 and 45 minutes
17:08 Zero fuel Weight: 179407 Lbs, Fuel Weight: 32991 Lbs
17:08 VATSIM:LOWI 011620Z 08011KT 050V110 9999 FEW030 07/M01 Q1002 NOSIG
17:08 VATSIM:LIEA 011550Z 23012KT 6000 -RA BKN006 14/13 Q0998
17:08 VOICE CATALONIAN / EASTER CHARTER IATA CT1004
17:13 Parking Brakes off
17:23 Take-off
17:23 Take off Weight: 211261 Lbs
17:23 Wind: 070º @ 012 Knots Heading: 079º
17:23 POS N47º 15´ 40´´ E011º 21´ 16´´
17:23 Gear Up: 156 Knots
17:23 Flaps:3 at 156 Knots
17:23 Flaps:2 at 162 Knots
17:24 Flaps:1 at 162 Knots
17:25 Flaps:0 at 170 Knots
17:38 Wind:147º@031 Knots Heading: 205º Ground Speed: 419 Knots Altitude 28382 ft
17:43 TOC
17:43 Fuel Weight: 26062 Lb
17:53 Wind:050º@024 Knots Heading: 175º Ground Speed: 486 Knots Altitude 32746 ft
18:08 Wind:128º@021 Knots Heading: 164º Ground Speed: 466 Knots Altitude 32660 ft
18:20 TOD
18:20 Fuel Weight: 17758 Lb
18:23 Wind:122º@024 Knots Heading: 239º Ground Speed: 496 Knots Altitude 28707 ft
18:38 Wind:219º@030 Knots Heading: 238º Ground Speed: 233 Knots Altitude 8083 ft
18:40 Flaps:1 at 222 Knots
18:43 Gear Down: 213 Knots
18:43 Flaps:2 at 203 Knots
18:44 Flaps:3 at 163 Knots
18:44 Flaps:4 at 159 Knots
18:45 TouchDown:Rate -149 ft/min Speed: 129 Knots
18:45 VATSIM:LIEA 011820Z 22014KT 6000 SCT008 BKN011 14/13 Q0998
18:45 Land
18:45 Wind:220º@014 Knots
18:45 Heading: 204º
18:45 Flight Duration: 01:22
18:45 Landing Weight: 194001 Lbs
18:45 POS N40º 37´ 54´´ E008º 17´ 26´´
18:48 CRASH
18:48 Parking brakes on
18:48 Block to Block Duration: 01:35
18:48 Final Fuel: 14281 Lbls
18:48 Spent Fuel: 18710 Lbls
18:48 Flight Length: 555 NM
18:48 TOD Land Length: 147 NM

Exportar CSV

Powered by Drupal - Modified by Danger4k